Time;durP1;ratioP1;P1;durP2;ratioP2;P2;SDS_P1;SDS_P2;PMS_P1;PMS_P2;Temp;Humidity;BMP_temperature;BMP_pressure;BME280_temperature;BME280_humidity;BME280_pressure;Samples;Min_cycle;Max_cycle;Signal;HPM_P1;HPM_P2
2023/06/27 00:00:49;;;;;;;10.63;5.97;;;;;;;;;;10488741;28;20028;-57
2023/06/27 00:05:50;;;;;;;7.03;5.85;;;;;;;;;;10482468;28;20023;-59
2023/06/27 00:10:50;;;;;;;8.90;5.70;;;;;;;;;;10481599;28;20029;-57
2023/06/27 00:15:52;;;;;;;7.05;5.40;;;;;;;;;;10475996;28;20060;-64
2023/06/27 00:20:53;;;;;;;9.55;5.25;;;;;;;;;;10494393;28;20032;-62
2023/06/27 00:25:53;;;;;;;10.65;5.63;;;;;;;;;;10483034;28;20032;-63
2023/06/27 00:30:54;;;;;;;6.30;5.32;;;;;;;;;;10482047;28;20021;-63
2023/06/27 00:35:55;;;;;;;6.32;5.38;;;;;;;;;;10489352;28;20036;-62
2023/06/27 00:40:55;;;;;;;6.72;5.10;;;;;;;;;;10475779;28;20439;-63
2023/06/27 00:45:57;;;;;;;10.90;5.88;;;;;;;;;;10479578;28;20224;-64
2023/06/27 00:50:59;;;;;;;8.63;5.70;;;;;;;;;;10493304;28;20444;-59
2023/06/27 00:55:59;;;;;;;12.27;5.88;;;;;;;;;;10487459;28;20035;-57
2023/06/27 01:01:00;;;;;;;7.78;6.28;;;;;;;;;;10491359;28;20028;-59
2023/06/27 01:06:24;;;;;;;9.50;5.57;;;;;;;;;;10488585;28;20028;-58
2023/06/27 01:11:32;;;;;;;8.38;5.78;;;;;;;;;;10480145;28;20112;-58
2023/06/27 01:16:35;;;;;;;8.65;5.68;;;;;;;;;;10479675;28;20028;-58
2023/06/27 01:21:38;;;;;;;9.48;6.10;;;;;;;;;;10477662;28;20419;-57
2023/06/27 01:26:39;;;;;;;9.95;5.65;;;;;;;;;;10482947;28;20025;-59
2023/06/27 01:32:07;;;;;;;7.32;5.63;;;;;;;;;;10480737;28;20068;-60
2023/06/27 01:37:24;;;;;;;8.05;5.80;;;;;;;;;;10472196;28;20028;-59
2023/06/27 01:42:34;;;;;;;7.13;5.72;;;;;;;;;;10478724;28;20033;-64
2023/06/27 01:47:39;;;;;;;8.30;5.30;;;;;;;;;;10466698;28;20047;-59
2023/06/27 01:52:40;;;;;;;6.97;5.80;;;;;;;;;;10470822;28;20029;-64
2023/06/27 01:57:41;;;;;;;10.27;6.20;;;;;;;;;;10480324;28;20060;-64
2023/06/27 02:02:42;;;;;;;7.07;5.80;;;;;;;;;;10481856;28;20384;-65
2023/06/27 02:07:43;;;;;;;9.55;5.72;;;;;;;;;;10476255;28;20029;-63
2023/06/27 02:12:43;;;;;;;12.35;6.40;;;;;;;;;;10473801;28;20074;-62
2023/06/27 02:17:44;;;;;;;6.78;5.90;;;;;;;;;;10480955;28;20112;-63
2023/06/27 02:22:44;;;;;;;10.65;6.10;;;;;;;;;;10487154;28;20017;-62
2023/06/27 02:27:45;;;;;;;8.07;6.00;;;;;;;;;;10474766;28;20024;-62
2023/06/27 02:32:46;;;;;;;21.88;6.05;;;;;;;;;;10477258;28;20047;-62
2023/06/27 02:37:46;;;;;;;7.70;6.13;;;;;;;;;;10460027;28;20421;-62
2023/06/27 02:42:48;;;;;;;7.05;5.75;;;;;;;;;;10461318;28;20492;-62
2023/06/27 02:47:48;;;;;;;7.00;5.78;;;;;;;;;;10496043;28;20032;-62
2023/06/27 02:52:49;;;;;;;6.32;5.60;;;;;;;;;;10470615;28;20074;-63
2023/06/27 02:57:50;;;;;;;10.25;6.28;;;;;;;;;;10478918;28;20037;-62
2023/06/27 03:02:50;;;;;;;6.32;5.70;;;;;;;;;;10483194;28;20033;-61
2023/06/27 03:07:51;;;;;;;6.63;5.95;;;;;;;;;;10461305;28;20029;-60
2023/06/27 03:12:51;;;;;;;7.38;5.78;;;;;;;;;;10487623;28;20077;-64
2023/06/27 03:17:52;;;;;;;10.43;6.50;;;;;;;;;;10495637;28;20032;-63
2023/06/27 03:22:53;;;;;;;10.32;6.28;;;;;;;;;;10496494;28;20069;-62
2023/06/27 03:27:53;;;;;;;7.70;5.97;;;;;;;;;;10505277;28;20051;-61
2023/06/27 03:32:54;;;;;;;10.65;5.90;;;;;;;;;;10464595;28;20040;-60
2023/06/27 03:37:55;;;;;;;6.88;6.10;;;;;;;;;;10482037;28;20309;-60
2023/06/27 03:42:56;;;;;;;9.15;6.38;;;;;;;;;;10471508;28;20580;-59
2023/06/27 03:47:56;;;;;;;10.63;5.80;;;;;;;;;;10458119;28;20052;-58
2023/06/27 03:52:57;;;;;;;8.90;6.03;;;;;;;;;;10475448;28;20029;-58
2023/06/27 03:57:57;;;;;;;7.45;5.60;;;;;;;;;;10480868;28;20037;-59
2023/06/27 04:02:58;;;;;;;11.18;5.78;;;;;;;;;;10481872;28;20079;-59
2023/06/27 04:07:58;;;;;;;6.90;5.63;;;;;;;;;;10480365;28;20119;-58
2023/06/27 04:12:59;;;;;;;7.82;5.97;;;;;;;;;;10471732;28;20424;-60
2023/06/27 04:18:00;;;;;;;9.15;5.88;;;;;;;;;;10457217;28;20434;-59
2023/06/27 04:23:01;;;;;;;7.78;6.03;;;;;;;;;;10466568;28;20086;-62
2023/06/27 04:28:02;;;;;;;9.82;6.03;;;;;;;;;;10483410;28;20033;-58
2023/06/27 04:33:03;;;;;;;11.55;6.35;;;;;;;;;;10458977;28;20040;-58
2023/06/27 04:38:04;;;;;;;7.25;5.82;;;;;;;;;;10467543;28;20021;-58
2023/06/27 04:43:06;;;;;;;7.15;5.63;;;;;;;;;;10464472;28;20486;-58
2023/06/27 04:48:07;;;;;;;15.15;6.13;;;;;;;;;;10462415;28;20031;-59
2023/06/27 04:53:07;;;;;;;17.23;5.93;;;;;;;;;;10459076;28;20028;-58
2023/06/27 04:58:08;;;;;;;9.48;5.90;;;;;;;;;;10491096;28;20028;-61
2023/06/27 05:03:08;;;;;;;10.75;6.35;;;;;;;;;;10469225;28;20021;-62
2023/06/27 05:08:10;;;;;;;8.77;5.72;;;;;;;;;;10490250;28;20033;-63
2023/06/27 05:13:10;;;;;;;9.93;6.32;;;;;;;;;;10489719;28;20025;-64
2023/06/27 05:18:12;;;;;;;21.13;6.70;;;;;;;;;;10490337;28;20035;-63
2023/06/27 05:23:13;;;;;;;10.13;6.40;;;;;;;;;;10488207;28;20024;-64
2023/06/27 05:28:13;;;;;;;8.23;6.25;;;;;;;;;;10494293;28;20446;-64
2023/06/27 05:33:14;;;;;;;12.52;6.55;;;;;;;;;;10490934;28;20037;-62
2023/06/27 05:38:15;;;;;;;12.32;6.63;;;;;;;;;;10490356;28;20028;-64
2023/06/27 05:43:16;;;;;;;10.13;6.70;;;;;;;;;;10486601;28;20287;-62
2023/06/27 05:48:19;;;;;;;12.75;6.80;;;;;;;;;;10485352;28;20599;-65
2023/06/27 05:53:19;;;;;;;17.35;8.00;;;;;;;;;;10479092;28;20041;-57
2023/06/27 05:58:20;;;;;;;18.73;9.15;;;;;;;;;;10487338;28;20036;-58
2023/06/27 06:03:21;;;;;;;11.30;8.65;;;;;;;;;;10490697;28;20027;-58
2023/06/27 06:08:22;;;;;;;19.77;8.38;;;;;;;;;;10482878;28;20041;-57
2023/06/27 06:13:23;;;;;;;18.23;8.52;;;;;;;;;;10484135;28;20032;-57
2023/06/27 06:18:23;;;;;;;14.18;7.75;;;;;;;;;;10490015;28;20063;-57
2023/06/27 06:23:24;;;;;;;15.25;7.43;;;;;;;;;;10489996;28;20032;-57
2023/06/27 06:28:24;;;;;;;13.05;7.07;;;;;;;;;;10491105;28;20040;-57
2023/06/27 06:33:26;;;;;;;16.73;7.20;;;;;;;;;;10456727;28;20056;-59
2023/06/27 06:38:26;;;;;;;9.93;6.80;;;;;;;;;;10475142;28;20033;-60
2023/06/27 06:43:27;;;;;;;11.65;7.20;;;;;;;;;;10472137;28;20369;-60
2023/06/27 06:48:27;;;;;;;13.88;7.53;;;;;;;;;;10473219;28;20033;-60
2023/06/27 06:53:28;;;;;;;11.00;7.20;;;;;;;;;;10471453;28;20028;-60
2023/06/27 06:58:29;;;;;;;11.50;7.95;;;;;;;;;;10460468;28;20025;-60
2023/06/27 07:03:31;;;;;;;11.02;6.97;;;;;;;;;;10471740;28;20025;-60
2023/06/27 07:08:31;;;;;;;12.63;6.85;;;;;;;;;;10459778;28;20184;-60
2023/06/27 07:13:32;;;;;;;17.05;7.30;;;;;;;;;;10462097;28;20078;-60
2023/06/27 07:18:32;;;;;;;11.27;6.68;;;;;;;;;;10496412;28;20051;-60
2023/06/27 07:23:33;;;;;;;8.15;6.50;;;;;;;;;;10458431;28;20078;-61
2023/06/27 07:28:33;;;;;;;8.45;6.60;;;;;;;;;;10466151;28;20386;-60
2023/06/27 07:33:34;;;;;;;14.18;7.18;;;;;;;;;;10470763;28;20059;-56
2023/06/27 07:38:35;;;;;;;10.90;7.13;;;;;;;;;;10458906;28;20033;-57
2023/06/27 07:43:35;;;;;;;17.30;7.00;;;;;;;;;;10471699;28;20025;-57
2023/06/27 07:48:36;;;;;;;10.48;6.75;;;;;;;;;;10457590;28;20036;-57
2023/06/27 07:53:36;;;;;;;12.50;6.35;;;;;;;;;;10457304;28;20028;-58
2023/06/27 07:58:37;;;;;;;9.43;6.38;;;;;;;;;;10462360;28;20468;-57
2023/06/27 08:03:37;;;;;;;11.30;6.32;;;;;;;;;;10478994;28;20506;-58
2023/06/27 08:08:38;;;;;;;7.03;5.70;;;;;;;;;;10459451;28;20411;-58
2023/06/27 08:13:41;;;;;;;12.05;6.38;;;;;;;;;;10479414;28;20035;-58
2023/06/27 08:18:42;;;;;;;12.45;6.80;;;;;;;;;;10456659;28;20070;-58
2023/06/27 08:23:42;;;;;;;9.55;6.47;;;;;;;;;;10457048;28;20079;-58
2023/06/27 08:28:43;;;;;;;10.88;6.22;;;;;;;;;;10472415;28;20024;-57
2023/06/27 08:33:44;;;;;;;8.60;6.40;;;;;;;;;;10458562;28;20053;-58
2023/06/27 08:38:45;;;;;;;8.25;6.20;;;;;;;;;;10457548;28;20029;-60
2023/06/27 08:43:47;;;;;;;9.93;6.53;;;;;;;;;;10490127;28;20028;-60
2023/06/27 08:48:51;;;;;;;10.52;6.32;;;;;;;;;;10493565;28;20036;-60
2023/06/27 08:53:56;;;;;;;9.23;6.55;;;;;;;;;;10492144;28;20024;-60
2023/06/27 08:59:05;;;;;;;9.95;6.40;;;;;;;;;;10490843;28;20243;-60
2023/06/27 09:04:07;;;;;;;9.15;6.75;;;;;;;;;;10491205;28;20068;-60
2023/06/27 09:09:10;;;;;;;12.13;6.40;;;;;;;;;;10491075;28;20506;-59
2023/06/27 09:14:11;;;;;;;9.85;6.13;;;;;;;;;;10490417;28;20109;-60
2023/06/27 09:19:12;;;;;;;10.38;7.60;;;;;;;;;;10493073;28;20029;-60
2023/06/27 09:24:14;;;;;;;11.43;6.32;;;;;;;;;;10493238;28;20032;-60
2023/06/27 09:29:15;;;;;;;7.72;6.35;;;;;;;;;;10490336;28;20103;-59
2023/06/27 09:34:16;;;;;;;8.20;6.35;;;;;;;;;;10453295;28;20141;-60
2023/06/27 09:39:16;;;;;;;8.38;6.63;;;;;;;;;;10465233;28;20412;-59
2023/06/27 09:44:19;;;;;;;11.40;6.82;;;;;;;;;;10477956;28;20389;-61
2023/06/27 09:49:25;;;;;;;9.77;6.50;;;;;;;;;;10454302;28;20291;-59
2023/06/27 09:54:26;;;;;;;7.07;5.97;;;;;;;;;;10479049;28;20424;-60
2023/06/27 09:59:28;;;;;;;11.57;6.93;;;;;;;;;;10466611;28;20040;-60
2023/06/27 10:04:29;;;;;;;6.93;6.22;;;;;;;;;;10477200;28;20035;-60
2023/06/27 10:09:30;;;;;;;12.68;7.13;;;;;;;;;;10480410;28;20026;-60
2023/06/27 10:14:32;;;;;;;8.68;6.63;;;;;;;;;;10476787;28;20028;-59
2023/06/27 10:19:35;;;;;;;7.38;6.63;;;;;;;;;;10473704;28;20451;-60
2023/06/27 10:24:39;;;;;;;8.40;5.65;;;;;;;;;;10473085;28;20036;-60
2023/06/27 10:29:41;;;;;;;8.95;6.53;;;;;;;;;;10481246;28;20495;-58
2023/06/27 10:34:43;;;;;;;9.98;6.68;;;;;;;;;;10477065;28;20043;-60
2023/06/27 10:39:58;;;;;;;9.82;6.80;;;;;;;;;;10482896;28;20465;-59
2023/06/27 10:45:10;;;;;;;8.18;6.20;;;;;;;;;;10477558;28;20103;-60
2023/06/27 10:50:21;;;;;;;8.70;6.70;;;;;;;;;;10479252;28;20025;-60
2023/06/27 10:55:26;;;;;;;8.05;6.65;;;;;;;;;;10460155;28;20091;-60
2023/06/27 11:00:30;;;;;;;12.25;6.47;;;;;;;;;;10465938;28;20024;-60
2023/06/27 11:05:51;;;;;;;7.80;6.10;;;;;;;;;;10478361;28;20086;-60
2023/06/27 11:11:08;;;;;;;8.18;6.97;;;;;;;;;;10488186;28;20044;-60
2023/06/27 11:16:11;;;;;;;6.85;6.22;;;;;;;;;;10490055;28;20119;-59
2023/06/27 11:21:12;;;;;;;7.10;6.40;;;;;;;;;;10488747;28;20483;-60
2023/06/27 11:26:13;;;;;;;8.82;6.82;;;;;;;;;;10468438;28;20025;-60
2023/06/27 11:31:14;;;;;;;10.85;7.05;;;;;;;;;;10487996;28;21003;-60
2023/06/27 11:36:15;;;;;;;8.27;6.68;;;;;;;;;;10479421;28;20127;-60
2023/06/27 11:41:22;;;;;;;8.18;6.40;;;;;;;;;;10479667;28;20043;-60
2023/06/27 11:46:23;;;;;;;8.98;6.72;;;;;;;;;;10482551;28;20434;-60
2023/06/27 11:51:23;;;;;;;7.65;6.45;;;;;;;;;;10492539;28;20040;-60
2023/06/27 11:56:24;;;;;;;8.02;6.05;;;;;;;;;;10491889;28;20039;-61
2023/06/27 12:01:26;;;;;;;10.48;6.95;;;;;;;;;;10487669;28;20036;-59
2023/06/27 12:06:32;;;;;;;8.95;6.70;;;;;;;;;;10468214;28;20389;-62
2023/06/27 12:11:37;;;;;;;14.27;6.68;;;;;;;;;;10459723;28;20096;-62
2023/06/27 12:16:37;;;;;;;14.90;7.75;;;;;;;;;;10459753;28;20029;-62
2023/06/27 12:21:38;;;;;;;16.67;7.13;;;;;;;;;;10471656;28;20020;-62
2023/06/27 12:26:39;;;;;;;10.10;7.05;;;;;;;;;;10485390;28;20035;-61
2023/06/27 12:31:40;;;;;;;11.68;6.95;;;;;;;;;;10492220;28;20052;-62
2023/06/27 12:36:41;;;;;;;18.58;6.85;;;;;;;;;;10486414;28;20075;-63
2023/06/27 12:41:41;;;;;;;11.98;6.60;;;;;;;;;;10492138;28;20473;-62
2023/06/27 12:46:42;;;;;;;15.80;7.03;;;;;;;;;;10491412;28;20024;-62
2023/06/27 12:51:43;;;;;;;10.73;6.88;;;;;;;;;;10485891;28;20044;-60
2023/06/27 12:56:43;;;;;;;8.27;6.22;;;;;;;;;;10481276;28;20028;-62
2023/06/27 13:01:54;;;;;;;8.98;6.53;;;;;;;;;;10491366;28;20194;-62
2023/06/27 13:06:55;;;;;;;9.98;6.53;;;;;;;;;;10488842;28;20029;-60
2023/06/27 13:11:56;;;;;;;11.48;6.88;;;;;;;;;;10475805;28;20046;-59
2023/06/27 13:16:57;;;;;;;7.70;5.70;;;;;;;;;;10482193;28;20045;-61
2023/06/27 13:21:59;;;;;;;9.32;6.35;;;;;;;;;;10489444;28;20498;-62
2023/06/27 13:27:00;;;;;;;11.38;6.38;;;;;;;;;;10492260;28;20066;-61
2023/06/27 13:32:01;;;;;;;9.18;6.25;;;;;;;;;;10468168;28;20044;-59
2023/06/27 13:37:02;;;;;;;6.50;5.85;;;;;;;;;;10474693;28;20662;-62
2023/06/27 13:42:03;;;;;;;9.75;6.80;;;;;;;;;;10491364;28;20028;-61
2023/06/27 13:47:03;;;;;;;9.73;6.28;;;;;;;;;;10471745;28;20083;-59
2023/06/27 13:52:05;;;;;;;8.18;6.18;;;;;;;;;;10473670;28;20480;-58
2023/06/27 13:57:06;;;;;;;10.32;6.65;;;;;;;;;;10491833;28;20033;-58
2023/06/27 14:02:06;;;;;;;8.02;6.18;;;;;;;;;;10490711;28;20024;-60
2023/06/27 14:07:07;;;;;;;8.30;6.15;;;;;;;;;;10487447;28;20028;-58
2023/06/27 14:12:08;;;;;;;7.28;6.50;;;;;;;;;;10466500;28;20021;-60
2023/06/27 14:17:09;;;;;;;6.75;5.97;;;;;;;;;;10484489;28;20107;-60
2023/06/27 14:22:11;;;;;;;7.63;5.70;;;;;;;;;;10489404;28;20468;-61
2023/06/27 14:27:11;;;;;;;6.75;5.85;;;;;;;;;;10483877;28;20531;-60
2023/06/27 14:32:12;;;;;;;6.25;5.55;;;;;;;;;;10467273;28;20045;-58
2023/06/27 14:37:12;;;;;;;7.82;5.32;;;;;;;;;;10454328;28;20029;-59
2023/06/27 14:42:13;;;;;;;7.05;6.20;;;;;;;;;;10453673;28;20078;-58
2023/06/27 14:47:14;;;;;;;5.93;4.97;;;;;;;;;;10490038;28;20028;-59
2023/06/27 14:52:14;;;;;;;20.65;6.22;;;;;;;;;;10467235;28;20017;-58
2023/06/27 14:57:16;;;;;;;32.78;6.50;;;;;;;;;;10470749;28;20051;-59
2023/06/27 15:02:16;;;;;;;19.67;5.95;;;;;;;;;;10480069;28;20400;-59
2023/06/27 15:07:17;;;;;;;31.27;6.63;;;;;;;;;;10493222;28;20024;-59
2023/06/27 15:12:17;;;;;;;23.73;6.47;;;;;;;;;;10495280;28;20038;-58
2023/06/27 15:17:18;;;;;;;13.90;5.68;;;;;;;;;;10478370;28;20031;-59
2023/06/27 15:22:23;;;;;;;23.85;7.18;;;;;;;;;;10476570;28;20036;-58
2023/06/27 15:27:25;;;;;;;27.13;7.13;;;;;;;;;;10487311;28;20054;-58
2023/06/27 15:32:25;;;;;;;16.08;6.15;;;;;;;;;;10486755;28;20045;-58
2023/06/27 15:37:26;;;;;;;13.93;6.63;;;;;;;;;;10465085;28;20033;-60
2023/06/27 15:42:27;;;;;;;23.25;7.03;;;;;;;;;;10471851;28;20036;-59
2023/06/27 15:47:28;;;;;;;9.63;6.22;;;;;;;;;;10494126;28;20028;-59
2023/06/27 15:52:29;;;;;;;14.40;5.80;;;;;;;;;;10493794;28;20043;-59
2023/06/27 15:57:31;;;;;;;18.58;6.13;;;;;;;;;;10493557;28;20028;-58
2023/06/27 16:02:33;;;;;;;16.48;6.07;;;;;;;;;;10493226;28;20024;-60
2023/06/27 16:07:33;;;;;;;13.23;5.55;;;;;;;;;;10493332;28;20054;-61
2023/06/27 16:12:34;;;;;;;15.18;5.88;;;;;;;;;;10492812;28;20522;-60
2023/06/27 16:17:34;;;;;;;13.32;5.68;;;;;;;;;;10492907;28;20037;-60
2023/06/27 16:22:35;;;;;;;7.63;5.53;;;;;;;;;;10492677;28;20047;-61
2023/06/27 16:27:36;;;;;;;9.63;5.22;;;;;;;;;;10491517;28;20025;-60
2023/06/27 16:32:36;;;;;;;7.60;5.53;;;;;;;;;;10469311;28;20075;-59
2023/06/27 16:37:37;;;;;;;11.02;5.53;;;;;;;;;;10456898;28;20040;-59
2023/06/27 16:42:37;;;;;;;10.02;5.35;;;;;;;;;;10467790;28;20074;-59
2023/06/27 16:47:38;;;;;;;8.20;4.97;;;;;;;;;;10467745;28;20021;-59
2023/06/27 16:52:39;;;;;;;10.32;5.40;;;;;;;;;;10489197;28;20037;-59
2023/06/27 16:57:39;;;;;;;11.32;5.68;;;;;;;;;;10480595;28;20068;-58
2023/06/27 17:02:40;;;;;;;7.28;5.03;;;;;;;;;;10485859;28;20032;-58
2023/06/27 17:07:41;;;;;;;9.93;4.93;;;;;;;;;;10483961;28;20372;-59
2023/06/27 17:12:42;;;;;;;16.10;5.70;;;;;;;;;;10479464;28;20500;-58
2023/06/27 17:17:42;;;;;;;7.60;5.45;;;;;;;;;;10468092;28;20036;-58
2023/06/27 17:22:43;;;;;;;7.90;5.90;;;;;;;;;;10485595;28;20036;-58
2023/06/27 17:27:44;;;;;;;7.70;5.80;;;;;;;;;;10486741;28;20675;-58
2023/06/27 17:32:45;;;;;;;19.08;5.88;;;;;;;;;;10484527;28;20040;-58
2023/06/27 17:37:45;;;;;;;17.50;6.60;;;;;;;;;;10466569;28;20036;-59
2023/06/27 17:42:48;;;;;;;13.35;6.00;;;;;;;;;;10459017;28;20479;-58
2023/06/27 17:47:48;;;;;;;9.52;5.90;;;;;;;;;;10493872;28;20021;-60
2023/06/27 17:52:49;;;;;;;13.48;6.43;;;;;;;;;;10477635;28;20029;-59
2023/06/27 17:57:50;;;;;;;14.10;7.22;;;;;;;;;;10481158;28;20397;-59
2023/06/27 18:02:51;;;;;;;8.93;6.30;;;;;;;;;;10478172;28;20032;-60
2023/06/27 18:07:52;;;;;;;9.88;6.07;;;;;;;;;;10489927;28;20037;-60
2023/06/27 18:12:53;;;;;;;9.57;6.20;;;;;;;;;;10474266;28;20029;-60
2023/06/27 18:17:54;;;;;;;10.63;6.78;;;;;;;;;;10483574;28;20028;-60
2023/06/27 18:22:54;;;;;;;12.10;6.60;;;;;;;;;;10488131;28;20033;-60
2023/06/27 18:27:55;;;;;;;10.20;6.10;;;;;;;;;;10493844;28;20469;-60
2023/06/27 18:32:57;;;;;;;10.88;6.13;;;;;;;;;;10490749;28;20409;-61
2023/06/27 18:37:57;;;;;;;12.02;7.15;;;;;;;;;;10491997;28;20383;-61
2023/06/27 18:42:58;;;;;;;11.30;6.55;;;;;;;;;;10497155;28;20028;-61
2023/06/27 18:48:00;;;;;;;7.43;6.07;;;;;;;;;;10494210;28;20083;-59
2023/06/27 18:53:02;;;;;;;13.57;7.05;;;;;;;;;;10496209;28;20411;-59
2023/06/27 18:58:02;;;;;;;20.33;7.30;;;;;;;;;;10492605;28;20115;-58
2023/06/27 19:03:03;;;;;;;12.38;6.88;;;;;;;;;;10481744;28;20036;-59
2023/06/27 19:08:06;;;;;;;8.57;6.30;;;;;;;;;;10477767;28;20388;-58
2023/06/27 19:13:06;;;;;;;11.45;6.25;;;;;;;;;;10491043;28;20116;-59
2023/06/27 19:18:07;;;;;;;7.90;6.22;;;;;;;;;;10495215;28;20041;-59
2023/06/27 19:23:08;;;;;;;19.83;6.40;;;;;;;;;;10484202;28;20476;-59
2023/06/27 19:28:08;;;;;;;9.85;6.40;;;;;;;;;;10463668;28;20032;-58
2023/06/27 19:33:09;;;;;;;8.55;6.20;;;;;;;;;;10473601;28;20048;-60
2023/06/27 19:38:10;;;;;;;9.25;6.30;;;;;;;;;;10465314;28;20115;-59
2023/06/27 19:43:10;;;;;;;8.32;6.40;;;;;;;;;;10460274;28;20044;-59
2023/06/27 19:48:11;;;;;;;8.52;6.20;;;;;;;;;;10464758;28;20028;-59
2023/06/27 19:53:13;;;;;;;7.55;6.32;;;;;;;;;;10463847;28;20028;-61
2023/06/27 19:58:13;;;;;;;8.32;5.80;;;;;;;;;;10464856;28;20028;-60
2023/06/27 20:03:14;;;;;;;8.65;6.60;;;;;;;;;;10475447;28;20028;-59
2023/06/27 20:08:15;;;;;;;7.30;6.35;;;;;;;;;;10466451;28;20039;-60
2023/06/27 20:13:15;;;;;;;10.90;6.40;;;;;;;;;;10459348;28;20438;-59
2023/06/27 20:18:16;;;;;;;19.13;6.70;;;;;;;;;;10465719;28;20063;-62
2023/06/27 20:23:17;;;;;;;15.43;7.50;;;;;;;;;;10469008;28;20028;-63
2023/06/27 20:28:17;;;;;;;15.95;7.13;;;;;;;;;;10469661;28;20032;-61
2023/06/27 20:33:18;;;;;;;14.93;7.30;;;;;;;;;;10488804;28;20499;-62
2023/06/27 20:38:19;;;;;;;15.23;7.13;;;;;;;;;;10492580;28;20488;-61
2023/06/27 20:43:19;;;;;;;9.95;6.60;;;;;;;;;;10495494;28;20032;-58
2023/06/27 20:48:20;;;;;;;10.02;6.00;;;;;;;;;;10490594;28;20037;-62
2023/06/27 20:53:20;;;;;;;8.18;6.60;;;;;;;;;;10488550;28;20082;-59
2023/06/27 20:58:21;;;;;;;10.32;6.47;;;;;;;;;;10488931;28;20046;-59
2023/06/27 21:03:22;;;;;;;7.43;5.85;;;;;;;;;;10490405;28;20040;-59
2023/06/27 21:08:22;;;;;;;8.98;6.00;;;;;;;;;;10486696;28;20286;-58
2023/06/27 21:13:26;;;;;;;13.63;5.63;;;;;;;;;;10489278;28;20063;-57
2023/06/27 21:18:27;;;;;;;6.35;5.70;;;;;;;;;;10485075;28;20373;-57
2023/06/27 21:23:28;;;;;;;6.07;5.20;;;;;;;;;;10487370;28;20044;-61
2023/06/27 21:28:29;;;;;;;7.43;5.38;;;;;;;;;;10484685;28;20028;-61
2023/06/27 21:33:30;;;;;;;8.73;5.25;;;;;;;;;;10488540;28;20051;-59
2023/06/27 21:38:30;;;;;;;7.45;4.68;;;;;;;;;;10480368;28;20036;-59
2023/06/27 21:43:31;;;;;;;8.15;4.90;;;;;;;;;;10486302;28;20086;-58
2023/06/27 21:48:32;;;;;;;5.75;4.72;;;;;;;;;;10484831;28;20040;-57
2023/06/27 21:53:33;;;;;;;7.60;4.88;;;;;;;;;;10486108;28;20499;-58
2023/06/27 21:58:34;;;;;;;17.92;4.78;;;;;;;;;;10487252;28;20120;-59
2023/06/27 22:03:36;;;;;;;9.15;5.10;;;;;;;;;;10484301;28;20465;-56
2023/06/27 22:08:37;;;;;;;7.07;4.82;;;;;;;;;;10495371;28;20123;-59
2023/06/27 22:13:38;;;;;;;5.07;4.25;;;;;;;;;;10492307;28;20123;-59
2023/06/27 22:18:38;;;;;;;5.07;4.40;;;;;;;;;;10497222;28;20037;-57
2023/06/27 22:23:39;;;;;;;5.20;4.50;;;;;;;;;;10494499;28;20037;-62
2023/06/27 22:28:39;;;;;;;6.20;4.18;;;;;;;;;;10497825;28;20499;-61
2023/06/27 22:33:40;;;;;;;6.95;4.55;;;;;;;;;;10498328;28;20049;-63
2023/06/27 22:38:40;;;;;;;8.23;5.07;;;;;;;;;;10497671;28;20040;-62
2023/06/27 22:43:41;;;;;;;7.55;4.63;;;;;;;;;;10497685;28;20047;-62
2023/06/27 22:48:42;;;;;;;5.95;4.47;;;;;;;;;;10497684;28;20036;-62
2023/06/27 22:53:46;;;;;;;8.80;4.55;;;;;;;;;;10497232;28;20032;-56
2023/06/27 22:58:48;;;;;;;4.97;4.13;;;;;;;;;;10497432;28;20384;-55
2023/06/27 23:03:49;;;;;;;5.72;4.32;;;;;;;;;;10496730;28;20025;-56
2023/06/27 23:08:49;;;;;;;6.93;3.90;;;;;;;;;;10497722;28;20020;-58
2023/06/27 23:13:50;;;;;;;10.98;3.85;;;;;;;;;;10495594;28;20051;-57
2023/06/27 23:18:57;;;;;;;3.70;3.13;;;;;;;;;;10496354;28;20032;-59
2023/06/27 23:23:58;;;;;;;5.07;3.20;;;;;;;;;;10495320;28;20032;-58
2023/06/27 23:29:03;;;;;;;5.57;2.78;;;;;;;;;;10495144;28;20032;-56
2023/06/27 23:34:05;;;;;;;4.22;2.75;;;;;;;;;;10491448;28;20041;-59
2023/06/27 23:39:07;;;;;;;3.55;2.42;;;;;;;;;;10491188;28;20081;-54
2023/06/27 23:44:09;;;;;;;3.53;2.53;;;;;;;;;;10493632;28;20040;-54
2023/06/27 23:49:10;;;;;;;7.32;3.03;;;;;;;;;;10495436;28;20024;-54
2023/06/27 23:54:10;;;;;;;4.28;3.25;;;;;;;;;;10495290;28;20036;-56
2023/06/27 23:59:11;;;;;;;4.32;3.20;;;;;;;;;;10482236;28;20020;-59
